KDYS

Dyess Air Force Base

Airport
ICAO code
KDYS
IATA Code
DYS
Summary
ICAO Region
NAM
ICAO Territory
Location

Abilene, Texas

Serving
Abilene
Elevation
1789 ft
Coordinates
32° 25' 21" N , 99° 50' 31" W
KCC
Airport LOS
Parallel Runway Operation
Airport WX
Cumulonimbus
Metar
KDYS 221555Z AUTO 31012KT 10SM CLR 19/M04 A2988 RMK AO2 SLP084 T01901038

Description

Dyess Air Force Base is a United States Air Force facility located 7 nm southwest of the central business district of the city of Abilene, Texas.

Airport map

Aerial View

SKYbrary Partners:

Safety knowledge contributed by: